createdAt,value
2023-03-31T00:02:49.427Z,6.32
2023-03-31T00:08:09.912Z,5.38
2023-03-31T00:13:27.159Z,8.93
2023-03-31T00:18:37.212Z,3.78
2023-03-31T00:23:45.820Z,8.70
2023-03-31T00:29:06.388Z,9.15
2023-03-31T00:34:13.520Z,7.47
2023-03-31T00:39:31.839Z,10.32
2023-03-31T00:44:42.424Z,7.70
2023-03-31T00:49:47.712Z,6.82
2023-03-31T00:54:53.308Z,7.47
2023-03-31T01:00:20.461Z,8.85
2023-03-31T01:05:30.546Z,5.70
2023-03-31T01:10:42.224Z,4.50
2023-03-31T01:16:01.887Z,6.80
2023-03-31T01:21:34.840Z,6.20
2023-03-31T01:26:59.055Z,6.22
2023-03-31T01:32:23.678Z,11.93
2023-03-31T01:37:41.399Z,8.00
2023-03-31T01:43:03.856Z,5.80
2023-03-31T01:48:18.512Z,9.05
2023-03-31T01:53:34.604Z,6.18
2023-03-31T01:58:45.907Z,4.05
2023-03-31T02:04:09.319Z,9.07
2023-03-31T02:09:18.704Z,5.28
2023-03-31T02:14:29.717Z,9.73
2023-03-31T02:19:45.402Z,6.25
2023-03-31T02:25:01.304Z,9.43
2023-03-31T02:30:15.044Z,6.88
2023-03-31T02:35:23.362Z,8.52
2023-03-31T02:40:32.632Z,9.57
2023-03-31T02:46:01.820Z,7.70
2023-03-31T02:51:32.046Z,7.03
2023-03-31T02:56:53.209Z,7.65
2023-03-31T03:02:12.345Z,9.75
2023-03-31T03:07:24.330Z,10.43
2023-03-31T03:12:37.448Z,8.30
2023-03-31T03:17:50.265Z,7.85
2023-03-31T03:22:58.528Z,5.47
2023-03-31T03:28:07.399Z,8.25
2023-03-31T03:33:17.365Z,7.03
2023-03-31T03:38:39.430Z,5.60
2023-03-31T03:43:49.692Z,6.73
2023-03-31T03:48:57.073Z,7.07
2023-03-31T03:54:08.020Z,3.75
2023-03-31T03:59:29.895Z,5.93
2023-03-31T04:04:40.151Z,10.80
2023-03-31T04:09:45.010Z,5.70
2023-03-31T04:20:06.069Z,13.97
2023-03-31T04:25:21.262Z,9.35
2023-03-31T04:30:42.708Z,17.05
2023-03-31T04:35:56.898Z,12.23
2023-03-31T04:41:01.926Z,9.35
2023-03-31T04:46:11.215Z,10.68
2023-03-31T04:51:22.571Z,10.68
2023-03-31T04:56:33.818Z,12.00
2023-03-31T05:01:38.901Z,8.85
2023-03-31T05:06:54.712Z,9.43
2023-03-31T05:11:59.831Z,12.05
2023-03-31T05:17:05.237Z,8.10
2023-03-31T05:22:19.766Z,7.80
2023-03-31T05:27:38.650Z,7.22
2023-03-31T05:32:45.227Z,10.95
2023-03-31T05:37:53.140Z,4.75
2023-03-31T05:43:08.660Z,9.52
2023-03-31T05:48:31.366Z,4.63
2023-03-31T05:53:40.199Z,8.02
2023-03-31T05:58:48.769Z,7.22
2023-03-31T06:03:56.151Z,12.10
2023-03-31T06:09:07.944Z,3.90
2023-03-31T06:19:45.628Z,9.10
2023-03-31T06:24:59.688Z,11.82
2023-03-31T06:30:13.923Z,9.35
2023-03-31T06:35:31.433Z,8.35
2023-03-31T06:40:41.956Z,10.02
2023-03-31T06:45:52.456Z,6.75
2023-03-31T06:51:04.882Z,8.73
2023-03-31T06:56:12.529Z,9.15
2023-03-31T07:01:19.294Z,11.15
2023-03-31T07:06:27.394Z,13.38
2023-03-31T07:11:37.210Z,3.35
2023-03-31T07:16:45.494Z,12.30
2023-03-31T07:22:03.298Z,14.50
2023-03-31T07:27:14.531Z,9.40
2023-03-31T07:32:24.792Z,10.82
2023-03-31T07:43:37.622Z,12.15
2023-03-31T07:48:58.340Z,13.73
2023-03-31T07:59:23.787Z,5.25
2023-03-31T08:04:38.627Z,5.88
2023-03-31T08:09:49.682Z,15.20
2023-03-31T08:15:03.251Z,5.88
2023-03-31T08:25:16.936Z,4.97
2023-03-31T08:30:37.619Z,10.63
2023-03-31T08:35:56.132Z,7.45
2023-03-31T08:41:08.819Z,6.65
2023-03-31T08:46:26.282Z,2.70
2023-03-31T08:51:36.477Z,7.85
2023-03-31T08:56:45.418Z,10.13
2023-03-31T09:01:56.597Z,6.85
2023-03-31T09:07:10.985Z,5.88
2023-03-31T09:12:18.857Z,9.30
2023-03-31T09:17:35.611Z,6.30
2023-03-31T09:22:44.791Z,6.28
2023-03-31T09:27:59.172Z,5.90
2023-03-31T09:33:13.295Z,3.33
2023-03-31T09:38:35.283Z,4.18
2023-03-31T09:43:50.002Z,3.40
2023-03-31T09:49:11.466Z,5.47
2023-03-31T09:54:26.803Z,4.10
2023-03-31T09:59:39.191Z,4.45
2023-03-31T10:09:57.707Z,3.50
2023-03-31T10:15:15.299Z,4.85
2023-03-31T10:20:21.482Z,3.85
2023-03-31T11:12:06.636Z,5.10
2023-03-31T11:17:17.510Z,5.53
2023-03-31T11:22:38.626Z,6.33
2023-03-31T11:28:01.206Z,3.17
2023-03-31T11:38:31.839Z,2.33
2023-03-31T11:43:53.869Z,1.27
2023-03-31T11:49:04.640Z,3.35
2023-03-31T11:54:14.200Z,3.05
2023-03-31T11:59:31.668Z,3.03
2023-03-31T12:04:56.525Z,3.30
2023-03-31T12:10:13.334Z,0.85
2023-03-31T12:15:22.460Z,4.32
2023-03-31T12:20:33.552Z,1.10
2023-03-31T12:25:48.697Z,2.90
2023-03-31T12:30:57.730Z,2.70
2023-03-31T12:36:15.823Z,2.30
2023-03-31T12:41:23.754Z,1.23
2023-03-31T12:46:51.978Z,2.58
2023-03-31T12:52:07.445Z,4.13
2023-03-31T12:57:17.570Z,2.58
2023-03-31T13:07:52.087Z,1.40
2023-03-31T13:13:05.783Z,2.55
2023-03-31T13:18:26.024Z,2.17
2023-03-31T13:23:34.455Z,3.85
2023-03-31T13:28:42.735Z,4.05
2023-03-31T13:33:57.289Z,3.67
2023-03-31T13:39:12.983Z,2.05
2023-03-31T13:44:33.409Z,1.45
2023-03-31T13:49:59.536Z,2.47
2023-03-31T13:55:15.030Z,2.25
2023-03-31T14:00:36.132Z,2.30
2023-03-31T14:05:45.292Z,1.50
2023-03-31T14:10:51.347Z,3.60
2023-03-31T14:16:11.773Z,2.67
2023-03-31T14:21:21.533Z,0.60
2023-03-31T14:26:39.223Z,2.25
2023-03-31T14:31:55.866Z,0.30
2023-03-31T14:37:04.085Z,0.80
2023-03-31T14:42:17.535Z,1.60
2023-03-31T14:47:40.181Z,3.25
2023-03-31T14:53:02.117Z,1.67
2023-03-31T14:58:32.025Z,1.08
2023-03-31T15:03:39.089Z,1.70
2023-03-31T15:08:48.226Z,1.20
2023-03-31T15:14:05.681Z,0.30
2023-03-31T15:19:13.574Z,2.95
2023-03-31T15:24:30.770Z,0.70
2023-03-31T15:29:47.816Z,2.10
2023-03-31T15:35:02.520Z,0.63
2023-03-31T15:45:55.819Z,1.38
2023-03-31T15:51:02.815Z,1.23
2023-03-31T15:56:05.778Z,2.30
2023-03-31T16:01:09.899Z,5.77
2023-03-31T16:06:16.956Z,2.28
2023-03-31T16:11:21.071Z,1.05
2023-03-31T16:16:29.582Z,3.40
2023-03-31T16:21:36.326Z,1.63
2023-03-31T16:26:39.144Z,2.00
2023-03-31T16:31:43.288Z,1.30
2023-03-31T16:36:49.421Z,1.38
2023-03-31T16:41:52.208Z,1.55
2023-03-31T16:46:56.328Z,3.55
2023-03-31T16:51:58.914Z,1.00
2023-03-31T16:57:02.251Z,3.83
2023-03-31T17:02:07.440Z,0.63
2023-03-31T17:07:20.457Z,0.35
2023-03-31T17:18:39.423Z,0.20
2023-03-31T17:23:42.753Z,1.50
2023-03-31T17:28:49.456Z,1.85
2023-03-31T17:33:53.980Z,1.67
2023-03-31T17:38:56.964Z,0.63
2023-03-31T17:43:59.915Z,0.67
2023-03-31T17:49:04.286Z,0.67
2023-03-31T17:54:07.266Z,0.47
2023-03-31T17:59:10.801Z,1.58
2023-03-31T18:04:15.284Z,0.40
2023-03-31T18:14:20.800Z,0.43
2023-03-31T18:19:25.602Z,1.13
2023-03-31T18:24:28.262Z,1.38
2023-03-31T18:29:31.108Z,2.78
2023-03-31T18:34:36.737Z,1.48
2023-03-31T18:39:39.452Z,1.85
2023-03-31T18:44:42.247Z,1.20
2023-03-31T18:49:47.445Z,1.08
2023-03-31T18:55:00.036Z,1.77
2023-03-31T19:00:03.950Z,1.48
2023-03-31T19:05:09.017Z,0.05
2023-03-31T19:10:12.731Z,3.50
2023-03-31T19:15:15.457Z,0.30
2023-03-31T19:20:19.895Z,0.57
2023-03-31T19:25:24.337Z,2.90
2023-03-31T19:30:29.263Z,2.15
2023-03-31T19:35:34.451Z,2.15
2023-03-31T19:40:37.733Z,3.78
2023-03-31T19:45:42.435Z,2.45
2023-03-31T19:50:48.626Z,0.57
2023-03-31T19:55:58.090Z,1.00
2023-03-31T20:01:01.093Z,1.25
2023-03-31T20:06:07.100Z,1.08
2023-03-31T20:11:14.025Z,3.42
2023-03-31T20:16:17.682Z,0.60
2023-03-31T20:21:22.291Z,3.92
2023-03-31T20:26:26.193Z,1.80
2023-03-31T20:31:29.859Z,2.28
2023-03-31T20:36:34.822Z,3.63
2023-03-31T20:42:13.197Z,2.97
2023-03-31T20:47:15.996Z,3.67
2023-03-31T20:52:20.129Z,3.58
2023-03-31T20:57:24.254Z,3.95
2023-03-31T21:02:28.006Z,6.32
2023-03-31T21:07:32.387Z,2.40
2023-03-31T21:12:34.860Z,1.83
2023-03-31T21:17:47.288Z,1.95
2023-03-31T21:22:51.404Z,2.65
2023-03-31T21:27:54.541Z,3.53
2023-03-31T21:32:57.947Z,1.58
2023-03-31T21:38:03.249Z,0.95
2023-03-31T21:43:07.188Z,3.05
2023-03-31T21:48:10.583Z,4.20
2023-03-31T21:58:19.361Z,1.83
2023-03-31T22:03:27.558Z,0.57
2023-03-31T22:08:31.413Z,0.57
2023-03-31T22:13:39.979Z,1.55
2023-03-31T22:18:42.828Z,0.93
2023-03-31T22:23:46.325Z,2.10
2023-03-31T22:28:50.448Z,1.42
2023-03-31T22:38:56.297Z,0.75
2023-03-31T22:44:00.495Z,2.15
2023-03-31T22:49:13.041Z,1.08
2023-03-31T22:54:16.099Z,2.78
2023-03-31T22:59:19.976Z,0.55
2023-03-31T23:04:23.681Z,3.40
2023-03-31T23:09:27.005Z,0.30
2023-03-31T23:14:32.018Z,1.23
2023-03-31T23:19:37.838Z,0.30
2023-03-31T23:24:40.610Z,1.20
2023-03-31T23:29:44.487Z,1.75
2023-03-31T23:34:47.103Z,1.58
2023-03-31T23:39:49.677Z,2.53
2023-03-31T23:44:54.292Z,0.80
2023-03-31T23:50:07.236Z,0.57
2023-03-31T23:55:10.185Z,0.65
